sensor_id;sensor_type;location;lat;lon;timestamp;temperature;humidity
11908;DHT22;6014;47.690;9.130;2024-03-29T00:00:16;4.20;97.00
11908;DHT22;6014;47.690;9.130;2024-03-29T00:02:43;4.20;98.00
11908;DHT22;6014;47.690;9.130;2024-03-29T00:05:13;4.10;98.30
11908;DHT22;6014;47.690;9.130;2024-03-29T00:07:47;4.10;98.70
11908;DHT22;6014;47.690;9.130;2024-03-29T00:10:14;4.00;99.20
11908;DHT22;6014;47.690;9.130;2024-03-29T00:12:43;4.00;99.60
11908;DHT22;6014;47.690;9.130;2024-03-29T00:15:09;4.00;99.90
11908;DHT22;6014;47.690;9.130;2024-03-29T00:17:36;4.00;99.90
11908;DHT22;6014;47.690;9.130;2024-03-29T00:20:04;4.00;99.90
11908;DHT22;6014;47.690;9.130;2024-03-29T00:22:31;3.90;99.90
11908;DHT22;6014;47.690;9.130;2024-03-29T00:24:59;3.90;99.90
11908;DHT22;6014;47.690;9.130;2024-03-29T00:27:25;3.80;99.90
11908;DHT22;6014;47.690;9.130;2024-03-29T00:29:52;3.70;99.90
11908;DHT22;6014;47.690;9.130;2024-03-29T00:32:18;3.60;99.90
11908;DHT22;6014;47.690;9.130;2024-03-29T00:34:45;3.50;99.90
11908;DHT22;6014;47.690;9.130;2024-03-29T00:37:11;3.50;99.90
11908;DHT22;6014;47.690;9.130;2024-03-29T00:39:41;3.50;99.90
11908;DHT22;6014;47.690;9.130;2024-03-29T00:42:09;3.40;99.90
11908;DHT22;6014;47.690;9.130;2024-03-29T00:44:35;3.40;99.90
11908;DHT22;6014;47.690;9.130;2024-03-29T00:47:02;3.30;99.90
11908;DHT22;6014;47.690;9.130;2024-03-29T00:49:28;3.30;99.90
11908;DHT22;6014;47.690;9.130;2024-03-29T00:51:55;3.20;99.90
11908;DHT22;6014;47.690;9.130;2024-03-29T00:54:21;3.20;99.90
11908;DHT22;6014;47.690;9.130;2024-03-29T00:56:48;3.10;99.90
11908;DHT22;6014;47.690;9.130;2024-03-29T00:59:16;3.20;99.90
11908;DHT22;6014;47.690;9.130;2024-03-29T01:01:42;3.20;99.90
11908;DHT22;6014;47.690;9.130;2024-03-29T01:04:09;3.40;99.90
11908;DHT22;6014;47.690;9.130;2024-03-29T01:06:37;3.40;99.90
11908;DHT22;6014;47.690;9.130;2024-03-29T01:09:04;3.40;99.90
11908;DHT22;6014;47.690;9.130;2024-03-29T01:11:31;3.40;99.90
11908;DHT22;6014;47.690;9.130;2024-03-29T01:13:57;3.40;99.90
11908;DHT22;6014;47.690;9.130;2024-03-29T01:16:25;3.40;99.90
11908;DHT22;6014;47.690;9.130;2024-03-29T01:18:51;3.40;99.90
11908;DHT22;6014;47.690;9.130;2024-03-29T01:21:18;3.40;99.90
11908;DHT22;6014;47.690;9.130;2024-03-29T01:23:44;3.40;99.90
11908;DHT22;6014;47.690;9.130;2024-03-29T01:26:11;3.40;99.90
11908;DHT22;6014;47.690;9.130;2024-03-29T01:28:37;3.40;99.90
11908;DHT22;6014;47.690;9.130;2024-03-29T01:31:04;3.40;99.90
11908;DHT22;6014;47.690;9.130;2024-03-29T01:33:32;3.30;99.90
11908;DHT22;6014;47.690;9.130;2024-03-29T01:35:59;3.20;99.90
11908;DHT22;6014;47.690;9.130;2024-03-29T01:38:25;3.30;99.90
11908;DHT22;6014;47.690;9.130;2024-03-29T01:40:51;3.30;99.90
11908;DHT22;6014;47.690;9.130;2024-03-29T01:43:18;3.30;99.90
11908;DHT22;6014;47.690;9.130;2024-03-29T01:45:48;3.30;99.90
11908;DHT22;6014;47.690;9.130;2024-03-29T01:48:16;3.40;99.90
11908;DHT22;6014;47.690;9.130;2024-03-29T01:50:47;3.50;99.90
11908;DHT22;6014;47.690;9.130;2024-03-29T01:53:17;3.50;99.90
11908;DHT22;6014;47.690;9.130;2024-03-29T01:55:50;3.40;99.90
11908;DHT22;6014;47.690;9.130;2024-03-29T01:58:18;3.40;99.90
11908;DHT22;6014;47.690;9.130;2024-03-29T02:00:52;3.50;99.90
11908;DHT22;6014;47.690;9.130;2024-03-29T02:03:20;3.50;99.90
11908;DHT22;6014;47.690;9.130;2024-03-29T02:05:49;3.40;99.90
11908;DHT22;6014;47.690;9.130;2024-03-29T02:08:17;3.40;99.90
11908;DHT22;6014;47.690;9.130;2024-03-29T02:10:46;3.30;99.90
11908;DHT22;6014;47.690;9.130;2024-03-29T02:13:15;3.20;99.90
11908;DHT22;6014;47.690;9.130;2024-03-29T02:15:42;3.10;99.90
11908;DHT22;6014;47.690;9.130;2024-03-29T02:18:14;3.10;99.90
11908;DHT22;6014;47.690;9.130;2024-03-29T02:20:41;3.10;99.90
11908;DHT22;6014;47.690;9.130;2024-03-29T02:23:11;3.00;99.90
11908;DHT22;6014;47.690;9.130;2024-03-29T02:25:42;3.00;99.90
11908;DHT22;6014;47.690;9.130;2024-03-29T02:28:09;2.90;99.90
11908;DHT22;6014;47.690;9.130;2024-03-29T02:30:39;2.90;99.90
11908;DHT22;6014;47.690;9.130;2024-03-29T02:33:09;2.90;99.90
11908;DHT22;6014;47.690;9.130;2024-03-29T02:35:49;2.80;99.90
11908;DHT22;6014;47.690;9.130;2024-03-29T02:38:16;2.80;99.90
11908;DHT22;6014;47.690;9.130;2024-03-29T02:40:54;2.70;99.90
11908;DHT22;6014;47.690;9.130;2024-03-29T02:43:31;2.70;99.90
11908;DHT22;6014;47.690;9.130;2024-03-29T02:45:58;2.70;99.90
11908;DHT22;6014;47.690;9.130;2024-03-29T02:48:30;2.70;99.90
11908;DHT22;6014;47.690;9.130;2024-03-29T02:50:57;2.80;99.90
11908;DHT22;6014;47.690;9.130;2024-03-29T02:53:24;2.80;99.90
11908;DHT22;6014;47.690;9.130;2024-03-29T02:55:51;2.90;99.90
11908;DHT22;6014;47.690;9.130;2024-03-29T02:58:26;2.90;99.90
11908;DHT22;6014;47.690;9.130;2024-03-29T03:00:53;2.90;99.90
11908;DHT22;6014;47.690;9.130;2024-03-29T03:03:41;2.80;99.90
11908;DHT22;6014;47.690;9.130;2024-03-29T03:06:08;2.80;99.90
11908;DHT22;6014;47.690;9.130;2024-03-29T03:08:35;2.70;99.90
11908;DHT22;6014;47.690;9.130;2024-03-29T03:11:20;2.70;99.90
11908;DHT22;6014;47.690;9.130;2024-03-29T03:13:49;2.60;99.90
11908;DHT22;6014;47.690;9.130;2024-03-29T03:16:17;2.70;99.90
11908;DHT22;6014;47.690;9.130;2024-03-29T03:18:51;2.70;99.90
11908;DHT22;6014;47.690;9.130;2024-03-29T03:21:17;2.80;99.90
11908;DHT22;6014;47.690;9.130;2024-03-29T03:23:44;3.00;99.90
11908;DHT22;6014;47.690;9.130;2024-03-29T03:26:10;3.10;99.90
11908;DHT22;6014;47.690;9.130;2024-03-29T03:28:38;3.10;99.90
11908;DHT22;6014;47.690;9.130;2024-03-29T03:31:08;3.10;99.90
11908;DHT22;6014;47.690;9.130;2024-03-29T03:33:36;3.00;99.90
11908;DHT22;6014;47.690;9.130;2024-03-29T03:36:02;3.00;99.90
11908;DHT22;6014;47.690;9.130;2024-03-29T03:38:38;2.90;99.90
11908;DHT22;6014;47.690;9.130;2024-03-29T03:41:08;2.80;99.90
11908;DHT22;6014;47.690;9.130;2024-03-29T03:43:35;2.70;99.90
11908;DHT22;6014;47.690;9.130;2024-03-29T03:46:02;2.70;99.90
11908;DHT22;6014;47.690;9.130;2024-03-29T03:48:31;2.70;99.90
11908;DHT22;6014;47.690;9.130;2024-03-29T03:50:57;2.70;99.90
11908;DHT22;6014;47.690;9.130;2024-03-29T03:53:26;2.80;99.90
11908;DHT22;6014;47.690;9.130;2024-03-29T03:55:53;2.90;99.90
11908;DHT22;6014;47.690;9.130;2024-03-29T03:58:20;3.00;99.90
11908;DHT22;6014;47.690;9.130;2024-03-29T04:00:46;3.00;99.90
11908;DHT22;6014;47.690;9.130;2024-03-29T04:03:13;3.20;99.90
11908;DHT22;6014;47.690;9.130;2024-03-29T04:05:41;3.40;99.90
11908;DHT22;6014;47.690;9.130;2024-03-29T04:08:27;3.60;99.90
11908;DHT22;6014;47.690;9.130;2024-03-29T04:10:53;3.70;99.90
11908;DHT22;6014;47.690;9.130;2024-03-29T04:13:20;3.80;99.90
11908;DHT22;6014;47.690;9.130;2024-03-29T04:15:47;3.80;99.90
11908;DHT22;6014;47.690;9.130;2024-03-29T04:18:18;3.90;99.90
11908;DHT22;6014;47.690;9.130;2024-03-29T04:20:46;4.00;99.90
11908;DHT22;6014;47.690;9.130;2024-03-29T04:23:14;4.10;99.90
11908;DHT22;6014;47.690;9.130;2024-03-29T04:25:50;4.00;99.90
11908;DHT22;6014;47.690;9.130;2024-03-29T04:28:18;4.10;99.90
11908;DHT22;6014;47.690;9.130;2024-03-29T04:30:51;4.20;99.90
11908;DHT22;6014;47.690;9.130;2024-03-29T04:33:25;4.20;99.90
11908;DHT22;6014;47.690;9.130;2024-03-29T04:35:57;4.30;99.90
11908;DHT22;6014;47.690;9.130;2024-03-29T04:38:26;4.30;99.90
11908;DHT22;6014;47.690;9.130;2024-03-29T04:40:55;4.30;99.90
11908;DHT22;6014;47.690;9.130;2024-03-29T04:43:24;4.40;99.90
11908;DHT22;6014;47.690;9.130;2024-03-29T04:46:01;4.40;99.90
11908;DHT22;6014;47.690;9.130;2024-03-29T04:48:31;4.40;99.90
11908;DHT22;6014;47.690;9.130;2024-03-29T04:50:59;4.40;99.90
11908;DHT22;6014;47.690;9.130;2024-03-29T04:53:31;4.40;99.90
11908;DHT22;6014;47.690;9.130;2024-03-29T04:55:58;4.40;99.90
11908;DHT22;6014;47.690;9.130;2024-03-29T04:58:26;4.40;99.90
11908;DHT22;6014;47.690;9.130;2024-03-29T05:00:54;4.50;99.90
11908;DHT22;6014;47.690;9.130;2024-03-29T05:03:22;4.50;99.90
11908;DHT22;6014;47.690;9.130;2024-03-29T05:05:51;4.50;99.90
11908;DHT22;6014;47.690;9.130;2024-03-29T05:08:20;4.50;99.90
11908;DHT22;6014;47.690;9.130;2024-03-29T05:10:48;4.60;99.90
11908;DHT22;6014;47.690;9.130;2024-03-29T05:13:16;4.70;99.90
11908;DHT22;6014;47.690;9.130;2024-03-29T05:15:45;4.70;99.90
11908;DHT22;6014;47.690;9.130;2024-03-29T05:18:13;4.70;99.90
11908;DHT22;6014;47.690;9.130;2024-03-29T05:20:40;4.70;99.90
11908;DHT22;6014;47.690;9.130;2024-03-29T05:23:12;4.70;99.90
11908;DHT22;6014;47.690;9.130;2024-03-29T05:25:42;4.60;99.60
11908;DHT22;6014;47.690;9.130;2024-03-29T05:28:10;4.50;99.90
11908;DHT22;6014;47.690;9.130;2024-03-29T05:30:38;4.60;99.70
11908;DHT22;6014;47.690;9.130;2024-03-29T05:33:05;4.60;99.20
11908;DHT22;6014;47.690;9.130;2024-03-29T05:35:33;4.60;99.40
11908;DHT22;6014;47.690;9.130;2024-03-29T05:38:01;4.70;99.90
11908;DHT22;6014;47.690;9.130;2024-03-29T05:40:28;4.80;99.90
11908;DHT22;6014;47.690;9.130;2024-03-29T05:42:59;4.90;99.90
11908;DHT22;6014;47.690;9.130;2024-03-29T05:45:29;5.10;99.90
11908;DHT22;6014;47.690;9.130;2024-03-29T05:47:58;5.30;98.40
11908;DHT22;6014;47.690;9.130;2024-03-29T05:50:25;5.40;97.50
11908;DHT22;6014;47.690;9.130;2024-03-29T05:52:53;5.60;97.50
11908;DHT22;6014;47.690;9.130;2024-03-29T05:55:20;5.70;96.00
11908;DHT22;6014;47.690;9.130;2024-03-29T05:57:47;5.70;93.60
11908;DHT22;6014;47.690;9.130;2024-03-29T06:00:16;5.70;92.50
11908;DHT22;6014;47.690;9.130;2024-03-29T06:02:45;5.80;91.20
11908;DHT22;6014;47.690;9.130;2024-03-29T06:05:14;5.70;89.40
11908;DHT22;6014;47.690;9.130;2024-03-29T06:07:41;5.70;87.80
11908;DHT22;6014;47.690;9.130;2024-03-29T06:10:08;5.70;89.10
11908;DHT22;6014;47.690;9.130;2024-03-29T06:12:41;5.90;87.10
11908;DHT22;6014;47.690;9.130;2024-03-29T06:15:09;6.10;87.30
11908;DHT22;6014;47.690;9.130;2024-03-29T06:17:55;6.30;85.60
11908;DHT22;6014;47.690;9.130;2024-03-29T06:20:23;6.40;84.70
11908;DHT22;6014;47.690;9.130;2024-03-29T06:22:51;6.50;83.60
11908;DHT22;6014;47.690;9.130;2024-03-29T06:25:18;6.60;82.20
11908;DHT22;6014;47.690;9.130;2024-03-29T06:27:46;6.70;80.80
11908;DHT22;6014;47.690;9.130;2024-03-29T06:30:14;6.80;79.70
11908;DHT22;6014;47.690;9.130;2024-03-29T06:32:45;7.00;78.70
11908;DHT22;6014;47.690;9.130;2024-03-29T06:35:15;7.00;78.50
11908;DHT22;6014;47.690;9.130;2024-03-29T06:37:42;7.20;77.70
11908;DHT22;6014;47.690;9.130;2024-03-29T06:40:11;7.40;77.70
11908;DHT22;6014;47.690;9.130;2024-03-29T06:42:39;7.60;76.80
11908;DHT22;6014;47.690;9.130;2024-03-29T06:45:24;7.70;74.30
11908;DHT22;6014;47.690;9.130;2024-03-29T06:47:53;8.00;72.60
11908;DHT22;6014;47.690;9.130;2024-03-29T06:50:30;8.10;70.70
11908;DHT22;6014;47.690;9.130;2024-03-29T06:52:58;8.20;69.70
11908;DHT22;6014;47.690;9.130;2024-03-29T06:55:25;8.30;69.10
11908;DHT22;6014;47.690;9.130;2024-03-29T06:57:59;8.50;66.30
11908;DHT22;6014;47.690;9.130;2024-03-29T07:00:27;8.60;66.00
11908;DHT22;6014;47.690;9.130;2024-03-29T07:02:57;8.90;64.80
11908;DHT22;6014;47.690;9.130;2024-03-29T07:05:25;9.20;63.30
11908;DHT22;6014;47.690;9.130;2024-03-29T07:07:53;9.50;60.50
11908;DHT22;6014;47.690;9.130;2024-03-29T07:10:21;9.90;58.00
11908;DHT22;6014;47.690;9.130;2024-03-29T07:12:49;10.10;56.90
11908;DHT22;6014;47.690;9.130;2024-03-29T07:15:18;10.20;57.00
11908;DHT22;6014;47.690;9.130;2024-03-29T07:17:45;10.40;56.30
11908;DHT22;6014;47.690;9.130;2024-03-29T07:20:16;10.60;55.10
11908;DHT22;6014;47.690;9.130;2024-03-29T07:22:43;10.80;53.20
11908;DHT22;6014;47.690;9.130;2024-03-29T07:25:13;11.00;51.80
11908;DHT22;6014;47.690;9.130;2024-03-29T07:27:40;11.00;51.20
11908;DHT22;6014;47.690;9.130;2024-03-29T07:30:08;11.00;52.20
11908;DHT22;6014;47.690;9.130;2024-03-29T07:32:36;11.20;50.50
11908;DHT22;6014;47.690;9.130;2024-03-29T07:35:05;11.60;49.20
11908;DHT22;6014;47.690;9.130;2024-03-29T07:37:32;11.90;49.10
11908;DHT22;6014;47.690;9.130;2024-03-29T07:39:59;12.30;47.70
11908;DHT22;6014;47.690;9.130;2024-03-29T07:42:28;12.30;46.70
11908;DHT22;6014;47.690;9.130;2024-03-29T07:44:56;12.60;46.40
11908;DHT22;6014;47.690;9.130;2024-03-29T07:47:23;12.70;46.10
11908;DHT22;6014;47.690;9.130;2024-03-29T07:49:53;13.00;44.40
11908;DHT22;6014;47.690;9.130;2024-03-29T07:52:25;13.10;43.70
11908;DHT22;6014;47.690;9.130;2024-03-29T07:54:52;13.20;44.40
11908;DHT22;6014;47.690;9.130;2024-03-29T07:57:20;13.60;44.40
11908;DHT22;6014;47.690;9.130;2024-03-29T07:59:50;13.80;43.90
11908;DHT22;6014;47.690;9.130;2024-03-29T08:02:18;14.00;42.80
11908;DHT22;6014;47.690;9.130;2024-03-29T08:04:46;14.30;41.60
11908;DHT22;6014;47.690;9.130;2024-03-29T08:07:17;14.40;41.30
11908;DHT22;6014;47.690;9.130;2024-03-29T08:09:45;14.20;40.30
11908;DHT22;6014;47.690;9.130;2024-03-29T08:12:12;14.20;40.00
11908;DHT22;6014;47.690;9.130;2024-03-29T08:14:43;13.90;40.40
11908;DHT22;6014;47.690;9.130;2024-03-29T08:17:13;13.50;41.10
11908;DHT22;6014;47.690;9.130;2024-03-29T08:19:48;12.90;41.50
11908;DHT22;6014;47.690;9.130;2024-03-29T08:22:16;12.40;41.70
11908;DHT22;6014;47.690;9.130;2024-03-29T08:28:45;12.00;41.00
11908;DHT22;6014;47.690;9.130;2024-03-29T08:36:33;11.80;46.70
11908;DHT22;6014;47.690;9.130;2024-03-29T08:38:59;11.70;46.60
11908;DHT22;6014;47.690;9.130;2024-03-29T08:41:27;11.70;48.40
11908;DHT22;6014;47.690;9.130;2024-03-29T08:43:57;11.70;46.70
11908;DHT22;6014;47.690;9.130;2024-03-29T08:46:24;11.60;47.80
11908;DHT22;6014;47.690;9.130;2024-03-29T08:48:51;11.60;46.30
11908;DHT22;6014;47.690;9.130;2024-03-29T08:51:20;11.70;46.50
11908;DHT22;6014;47.690;9.130;2024-03-29T08:53:47;11.70;46.50
11908;DHT22;6014;47.690;9.130;2024-03-29T08:56:18;11.90;46.70
11908;DHT22;6014;47.690;9.130;2024-03-29T08:58:45;12.30;44.90
11908;DHT22;6014;47.690;9.130;2024-03-29T09:01:13;12.60;43.20
11908;DHT22;6014;47.690;9.130;2024-03-29T09:03:41;13.00;43.10
11908;DHT22;6014;47.690;9.130;2024-03-29T09:06:13;13.30;42.00
11908;DHT22;6014;47.690;9.130;2024-03-29T09:08:43;13.50;41.40
11908;DHT22;6014;47.690;9.130;2024-03-29T09:11:10;13.80;40.40
11908;DHT22;6014;47.690;9.130;2024-03-29T09:13:49;13.90;40.40
11908;DHT22;6014;47.690;9.130;2024-03-29T09:16:16;14.10;39.20
11908;DHT22;6014;47.690;9.130;2024-03-29T09:18:44;14.10;39.50
11908;DHT22;6014;47.690;9.130;2024-03-29T09:23:39;14.50;55.60
11908;DHT22;6014;47.690;9.130;2024-03-29T09:33:42;14.90;50.60
11908;DHT22;6014;47.690;9.130;2024-03-29T09:36:13;15.30;40.70
11908;DHT22;6014;47.690;9.130;2024-03-29T09:38:41;15.60;37.70
11908;DHT22;6014;47.690;9.130;2024-03-29T09:41:13;15.90;41.60
11908;DHT22;6014;47.690;9.130;2024-03-29T09:43:44;16.30;35.00
11908;DHT22;6014;47.690;9.130;2024-03-29T09:48:43;16.90;34.30
11908;DHT22;6014;47.690;9.130;2024-03-29T09:51:19;17.30;32.80
11908;DHT22;6014;47.690;9.130;2024-03-29T09:53:48;17.50;32.80
11908;DHT22;6014;47.690;9.130;2024-03-29T09:56:18;17.60;29.90
11908;DHT22;6014;47.690;9.130;2024-03-29T09:58:45;18.00;32.30
11908;DHT22;6014;47.690;9.130;2024-03-29T10:01:12;18.10;32.00
11908;DHT22;6014;47.690;9.130;2024-03-29T10:03:41;18.40;27.00
11908;DHT22;6014;47.690;9.130;2024-03-29T10:06:10;18.90;26.40
11908;DHT22;6014;47.690;9.130;2024-03-29T10:08:38;18.70;25.80
11908;DHT22;6014;47.690;9.130;2024-03-29T10:11:06;18.70;26.40
11908;DHT22;6014;47.690;9.130;2024-03-29T10:13:35;19.50;25.70
11908;DHT22;6014;47.690;9.130;2024-03-29T10:16:04;20.10;25.80
11908;DHT22;6014;47.690;9.130;2024-03-29T10:18:32;20.60;36.50
11908;DHT22;6014;47.690;9.130;2024-03-29T10:21:00;20.50;26.30
11908;DHT22;6014;47.690;9.130;2024-03-29T10:23:29;20.00;27.20
11908;DHT22;6014;47.690;9.130;2024-03-29T10:26:10;19.80;26.20
11908;DHT22;6014;47.690;9.130;2024-03-29T10:28:54;19.50;23.80
11908;DHT22;6014;47.690;9.130;2024-03-29T10:31:23;19.20;35.40
11908;DHT22;6014;47.690;9.130;2024-03-29T10:33:54;19.00;40.50
11908;DHT22;6014;47.690;9.130;2024-03-29T10:39:10;19.80;46.00
11908;DHT22;6014;47.690;9.130;2024-03-29T10:41:42;19.90;21.90
11908;DHT22;6014;47.690;9.130;2024-03-29T10:44:12;19.90;23.70
11908;DHT22;6014;47.690;9.130;2024-03-29T10:46:42;20.00;23.40
11908;DHT22;6014;47.690;9.130;2024-03-29T10:49:15;20.20;22.60
11908;DHT22;6014;47.690;9.130;2024-03-29T10:51:44;20.60;23.00
11908;DHT22;6014;47.690;9.130;2024-03-29T10:54:12;21.00;22.50
11908;DHT22;6014;47.690;9.130;2024-03-29T10:56:40;21.70;21.80
11908;DHT22;6014;47.690;9.130;2024-03-29T11:01:54;21.90;26.90
11908;DHT22;6014;47.690;9.130;2024-03-29T11:04:29;21.70;20.60
11908;DHT22;6014;47.690;9.130;2024-03-29T11:07:04;21.30;20.30
11908;DHT22;6014;47.690;9.130;2024-03-29T11:09:34;20.80;21.30
11908;DHT22;6014;47.690;9.130;2024-03-29T11:12:03;20.40;24.70
11908;DHT22;6014;47.690;9.130;2024-03-29T11:14:37;20.40;25.10
11908;DHT22;6014;47.690;9.130;2024-03-29T11:17:07;20.00;28.50
11908;DHT22;6014;47.690;9.130;2024-03-29T11:19:35;19.70;30.70
11908;DHT22;6014;47.690;9.130;2024-03-29T11:22:03;19.60;32.60
11908;DHT22;6014;47.690;9.130;2024-03-29T11:27:07;19.50;34.10
11908;DHT22;6014;47.690;9.130;2024-03-29T11:29:41;19.60;32.90
11908;DHT22;6014;47.690;9.130;2024-03-29T11:32:14;19.70;32.20
11908;DHT22;6014;47.690;9.130;2024-03-29T11:37:12;20.00;39.70
11908;DHT22;6014;47.690;9.130;2024-03-29T11:39:46;20.10;35.50
11908;DHT22;6014;47.690;9.130;2024-03-29T11:44:45;20.30;43.80
11908;DHT22;6014;47.690;9.130;2024-03-29T11:47:15;20.40;39.90
11908;DHT22;6014;47.690;9.130;2024-03-29T11:49:44;20.60;38.10
11908;DHT22;6014;47.690;9.130;2024-03-29T11:52:11;20.60;35.70
11908;DHT22;6014;47.690;9.130;2024-03-29T11:54:39;20.30;33.30
11908;DHT22;6014;47.690;9.130;2024-03-29T11:57:07;20.30;36.40
11908;DHT22;6014;47.690;9.130;2024-03-29T11:59:35;20.60;39.10
11908;DHT22;6014;47.690;9.130;2024-03-29T12:02:04;21.10;21.70
11908;DHT22;6014;47.690;9.130;2024-03-29T12:04:34;21.60;19.90
11908;DHT22;6014;47.690;9.130;2024-03-29T12:07:02;21.80;20.00
11908;DHT22;6014;47.690;9.130;2024-03-29T12:09:30;22.00;18.80
11908;DHT22;6014;47.690;9.130;2024-03-29T12:11:58;22.00;19.10
11908;DHT22;6014;47.690;9.130;2024-03-29T12:14:31;22.10;18.70
11908;DHT22;6014;47.690;9.130;2024-03-29T12:17:09;22.30;20.50
11908;DHT22;6014;47.690;9.130;2024-03-29T12:19:37;22.20;20.50
11908;DHT22;6014;47.690;9.130;2024-03-29T12:22:08;21.90;20.30
11908;DHT22;6014;47.690;9.130;2024-03-29T12:24:38;21.70;19.70
11908;DHT22;6014;47.690;9.130;2024-03-29T12:27:07;21.80;19.90
11908;DHT22;6014;47.690;9.130;2024-03-29T12:29:42;21.80;19.40
11908;DHT22;6014;47.690;9.130;2024-03-29T12:32:12;21.70;20.00
11908;DHT22;6014;47.690;9.130;2024-03-29T12:34:40;21.80;20.50
11908;DHT22;6014;47.690;9.130;2024-03-29T12:37:08;22.10;20.20
11908;DHT22;6014;47.690;9.130;2024-03-29T12:39:36;22.30;20.60
11908;DHT22;6014;47.690;9.130;2024-03-29T12:42:08;22.30;19.80
11908;DHT22;6014;47.690;9.130;2024-03-29T12:44:35;22.10;20.40
11908;DHT22;6014;47.690;9.130;2024-03-29T12:47:04;21.90;19.30
11908;DHT22;6014;47.690;9.130;2024-03-29T12:49:35;22.30;20.40
11908;DHT22;6014;47.690;9.130;2024-03-29T12:52:07;22.30;22.00
11908;DHT22;6014;47.690;9.130;2024-03-29T12:55:46;22.60;20.20
11908;DHT22;6014;47.690;9.130;2024-03-29T12:58:32;23.40;28.50
11908;DHT22;6014;47.690;9.130;2024-03-29T13:04:40;24.30;38.20
11908;DHT22;6014;47.690;9.130;2024-03-29T13:20:05;22.90;18.50
11908;DHT22;6014;47.690;9.130;2024-03-29T13:22:35;22.80;18.40
11908;DHT22;6014;47.690;9.130;2024-03-29T13:25:20;22.40;19.30
11908;DHT22;6014;47.690;9.130;2024-03-29T13:28:01;21.90;20.10
11908;DHT22;6014;47.690;9.130;2024-03-29T13:30:38;21.50;20.80
11908;DHT22;6014;47.690;9.130;2024-03-29T13:33:22;21.40;21.60
11908;DHT22;6014;47.690;9.130;2024-03-29T13:36:12;21.30;22.80
11908;DHT22;6014;47.690;9.130;2024-03-29T13:38:46;21.30;23.20
11908;DHT22;6014;47.690;9.130;2024-03-29T13:41:19;21.40;23.40
11908;DHT22;6014;47.690;9.130;2024-03-29T13:43:57;21.60;22.50
11908;DHT22;6014;47.690;9.130;2024-03-29T13:46:50;21.70;22.90
11908;DHT22;6014;47.690;9.130;2024-03-29T13:49:22;21.70;23.10
11908;DHT22;6014;47.690;9.130;2024-03-29T13:51:53;21.80;21.70
11908;DHT22;6014;47.690;9.130;2024-03-29T13:54:23;22.00;20.50
11908;DHT22;6014;47.690;9.130;2024-03-29T13:57:05;22.10;20.50
11908;DHT22;6014;47.690;9.130;2024-03-29T13:59:38;22.10;20.40
11908;DHT22;6014;47.690;9.130;2024-03-29T14:02:10;22.40;20.30
11908;DHT22;6014;47.690;9.130;2024-03-29T14:04:38;22.50;19.60
11908;DHT22;6014;47.690;9.130;2024-03-29T14:07:10;22.30;19.30
11908;DHT22;6014;47.690;9.130;2024-03-29T14:09:40;22.20;20.50
11908;DHT22;6014;47.690;9.130;2024-03-29T14:12:09;22.20;20.10
11908;DHT22;6014;47.690;9.130;2024-03-29T14:14:37;22.10;21.00
11908;DHT22;6014;47.690;9.130;2024-03-29T14:17:04;22.20;21.40
11908;DHT22;6014;47.690;9.130;2024-03-29T14:19:33;22.30;21.40
11908;DHT22;6014;47.690;9.130;2024-03-29T14:22:00;22.30;20.30
11908;DHT22;6014;47.690;9.130;2024-03-29T14:24:30;22.40;21.30
11908;DHT22;6014;47.690;9.130;2024-03-29T14:27:04;22.50;21.30
11908;DHT22;6014;47.690;9.130;2024-03-29T14:29:32;22.60;20.50
11908;DHT22;6014;47.690;9.130;2024-03-29T14:32:00;22.40;19.40
11908;DHT22;6014;47.690;9.130;2024-03-29T14:34:28;22.50;19.40
11908;DHT22;6014;47.690;9.130;2024-03-29T14:36:57;22.40;19.70
11908;DHT22;6014;47.690;9.130;2024-03-29T14:39:29;22.50;20.10
11908;DHT22;6014;47.690;9.130;2024-03-29T14:41:57;22.40;20.10
11908;DHT22;6014;47.690;9.130;2024-03-29T14:44:30;22.10;20.40
11908;DHT22;6014;47.690;9.130;2024-03-29T14:47:00;22.00;20.60
11908;DHT22;6014;47.690;9.130;2024-03-29T14:49:34;22.10;20.80
11908;DHT22;6014;47.690;9.130;2024-03-29T14:52:06;22.00;20.60
11908;DHT22;6014;47.690;9.130;2024-03-29T14:54:35;22.00;22.30
11908;DHT22;6014;47.690;9.130;2024-03-29T14:57:06;21.80;22.00
11908;DHT22;6014;47.690;9.130;2024-03-29T14:59:35;21.50;20.00
11908;DHT22;6014;47.690;9.130;2024-03-29T15:02:03;21.20;19.80
11908;DHT22;6014;47.690;9.130;2024-03-29T15:04:30;21.10;19.80
11908;DHT22;6014;47.690;9.130;2024-03-29T15:06:57;21.00;21.00
11908;DHT22;6014;47.690;9.130;2024-03-29T15:09:25;20.90;21.20
11908;DHT22;6014;47.690;9.130;2024-03-29T15:11:54;20.60;20.80
11908;DHT22;6014;47.690;9.130;2024-03-29T15:14:21;20.50;22.10
11908;DHT22;6014;47.690;9.130;2024-03-29T15:16:48;20.50;22.00
11908;DHT22;6014;47.690;9.130;2024-03-29T15:19:18;20.30;23.10
11908;DHT22;6014;47.690;9.130;2024-03-29T15:21:45;20.30;21.60
11908;DHT22;6014;47.690;9.130;2024-03-29T15:24:14;20.10;23.00
11908;DHT22;6014;47.690;9.130;2024-03-29T15:26:42;20.10;21.80
11908;DHT22;6014;47.690;9.130;2024-03-29T15:29:12;20.00;21.90
11908;DHT22;6014;47.690;9.130;2024-03-29T15:31:40;20.00;24.40
11908;DHT22;6014;47.690;9.130;2024-03-29T15:34:10;19.90;25.10
11908;DHT22;6014;47.690;9.130;2024-03-29T15:36:37;19.80;26.60
11908;DHT22;6014;47.690;9.130;2024-03-29T15:39:06;19.80;27.10
11908;DHT22;6014;47.690;9.130;2024-03-29T15:41:34;19.70;27.80
11908;DHT22;6014;47.690;9.130;2024-03-29T15:44:02;19.60;29.30
11908;DHT22;6014;47.690;9.130;2024-03-29T15:46:31;19.50;28.70
11908;DHT22;6014;47.690;9.130;2024-03-29T15:49:00;19.50;28.30
11908;DHT22;6014;47.690;9.130;2024-03-29T15:51:28;19.30;28.90
11908;DHT22;6014;47.690;9.130;2024-03-29T15:53:56;19.20;29.40
11908;DHT22;6014;47.690;9.130;2024-03-29T15:56:26;19.10;27.60
11908;DHT22;6014;47.690;9.130;2024-03-29T15:58:54;19.00;29.80
11908;DHT22;6014;47.690;9.130;2024-03-29T16:01:23;18.90;31.00
11908;DHT22;6014;47.690;9.130;2024-03-29T16:03:52;18.80;29.70
11908;DHT22;6014;47.690;9.130;2024-03-29T16:06:19;18.70;29.60
11908;DHT22;6014;47.690;9.130;2024-03-29T16:08:47;18.70;30.20
11908;DHT22;6014;47.690;9.130;2024-03-29T16:11:14;18.70;32.50
11908;DHT22;6014;47.690;9.130;2024-03-29T16:13:41;18.60;32.50
11908;DHT22;6014;47.690;9.130;2024-03-29T16:16:10;18.60;33.10
11908;DHT22;6014;47.690;9.130;2024-03-29T16:18:38;18.50;33.60
11908;DHT22;6014;47.690;9.130;2024-03-29T16:21:05;18.50;33.00
11908;DHT22;6014;47.690;9.130;2024-03-29T16:23:33;18.40;31.50
11908;DHT22;6014;47.690;9.130;2024-03-29T16:25:59;18.40;31.40
11908;DHT22;6014;47.690;9.130;2024-03-29T16:28:27;18.30;30.40
11908;DHT22;6014;47.690;9.130;2024-03-29T16:30:53;18.30;29.40
11908;DHT22;6014;47.690;9.130;2024-03-29T16:33:20;18.20;30.50
11908;DHT22;6014;47.690;9.130;2024-03-29T16:35:48;18.10;32.40
11908;DHT22;6014;47.690;9.130;2024-03-29T16:38:16;18.00;30.90
11908;DHT22;6014;47.690;9.130;2024-03-29T16:40:46;17.90;31.10
11908;DHT22;6014;47.690;9.130;2024-03-29T16:43:13;17.80;31.30
11908;DHT22;6014;47.690;9.130;2024-03-29T16:45:40;17.70;32.00
11908;DHT22;6014;47.690;9.130;2024-03-29T16:48:08;17.50;31.60
11908;DHT22;6014;47.690;9.130;2024-03-29T16:50:35;17.40;33.80
11908;DHT22;6014;47.690;9.130;2024-03-29T16:53:04;17.30;35.20
11908;DHT22;6014;47.690;9.130;2024-03-29T16:55:31;17.20;36.40
11908;DHT22;6014;47.690;9.130;2024-03-29T16:58:00;17.00;36.30